Barfleur — FNIE — position and weather

sailwx.info

Track history (hours):
 
Tides and Currents Weather Stations Pressure Air Temp Water Temp Dewpoint Dewpoint Depression Visibility Wind Speed Wind Dir Waves Ship Positions

Barfleur

Operator: Brittany Ferries

Last reported at 2017-Jul-20 18:06 UTC. Time now 2017-Jul-20 18:38 UTC.
Position N 50°03' W 001°45'.

Length 158 m; draft 5 m.

Type: Passenger vessel. MMSI: 227289000.

Date/timePositionNaut miles runAvg speedWind from/ knotsBaromVisibWave heightAir tempDewpointWater temp
2017-Jul-20 18:06N 50°03' W 001°45'217.8
2017-Jul-20 18:00N 50°02' W 001°44'917.4
2017-Jul-20 17:30N 49°53' W 001°42'917.3
2017-Jul-20 17:00N 49°44' W 001°40'611.4
2017-Jul-20 16:30N 49°39' W 001°37'0 0.6
2017-Jul-20 16:00N 49°39' W 001°37'0 0.0
2017-Jul-20 15:30N 49°39' W 001°37'0 0.0
2017-Jul-20 15:01N 49°39' W 001°37'0 0.0
2017-Jul-20 14:00N 49°39' W 001°37'0 0.0
2017-Jul-20 13:30N 49°39' W 001°37'0 0.0
2017-Jul-20 13:00N 49°39' W 001°37'0 0.0
2017-Jul-20 12:30N 49°39' W 001°37'0 0.0
2017-Jul-20 12:00N 49°39' W 001°37'1 2.0
2017-Jul-20 11:30N 49°40' W 001°37'815.1
2017-Jul-20 11:01N 49°47' W 001°42'917.5
2017-Jul-20 10:30N 49°55' W 001°45'918.0
2017-Jul-20 10:00N 50°04' W 001°47'918.3
2017-Jul-20 09:30N 50°13' W 001°48'1718.2
2017-Jul-20 08:34N 50°30' W 001°52'118.6
2017-Jul-20 08:30N 50°31' W 001°52'917.5
2017-Jul-20 08:00N 50°40' W 001°56'4 7.3
2017-Jul-20 07:30N 50°42' W 001°59'0 0.0
2017-Jul-20 07:00N 50°42' W 001°59'0 0.0
2017-Jul-20 06:30N 50°42' W 001°59'0 0.0
2017-Jul-20 06:00N 50°42' W 001°59'0 0.0
2017-Jul-20 05:30N 50°42' W 001°59'0 0.0
2017-Jul-20 05:00N 50°42' W 001°59'0 0.0
2017-Jul-20 04:30N 50°42' W 001°59'0 0.0
2017-Jul-20 04:00N 50°42' W 001°59'0 0.0
2017-Jul-20 03:30N 50°42' W 001°59'0 0.0
2017-Jul-20 03:00N 50°42' W 001°59'0 0.0
2017-Jul-20 02:30N 50°42' W 001°59'0 0.0
2017-Jul-20 02:00N 50°42' W 001°59'0 0.0
2017-Jul-20 01:30N 50°42' W 001°59'0 0.0
2017-Jul-20 01:00N 50°42' W 001°59'0 0.0
2017-Jul-20 00:30N 50°42' W 001°59'0 0.0
2017-Jul-20 00:00N 50°42' W 001°59'0 0.0
2017-Jul-19 23:30N 50°42' W 001°59'0 0.0
2017-Jul-19 23:00N 50°42' W 001°59'0 0.0
2017-Jul-19 22:30N 50°42' W 001°59'0 0.0
2017-Jul-19 22:00N 50°42' W 001°59'0 0.0
2017-Jul-19 21:30N 50°42' W 001°59'0 0.0
2017-Jul-19 21:00N 50°42' W 001°59'2 3.2
2017-Jul-19 20:30N 50°42' W 001°57'713.0
2017-Jul-19 20:00N 50°36' W 001°53'3618.0
2017-Jul-19 17:59N 50°00' W 001°43'817.8
2017-Jul-19 17:30N 49°52' W 001°41'917.3
2017-Jul-19 17:00N 49°43' W 001°37'5 9.0
2017-Jul-19 16:30N 49°39' W 001°37'0 0.0
2017-Jul-19 16:00N 49°39' W 001°37'0 0.0
2017-Jul-19 15:31N 49°39' W 001°37'2 3.4
2017-Jul-19 15:00N 49°40' W 001°38'815.6
2017-Jul-19 14:30N 49°48' W 001°37'5 9.3
2017-Jul-19 14:00N 49°52' W 001°35'612.8
2017-Jul-19 13:30N 49°46' W 001°36'611.3
2017-Jul-19 13:00N 49°41' W 001°39'2 5.0
2017-Jul-19 12:31N 49°39' W 001°37'0 0.0
2017-Jul-19 12:00N 49°39' W 001°37'1 2.3
2017-Jul-19 11:30N 49°40' W 001°37'815.7
2017-Jul-19 11:00N 49°47' W 001°41'917.3
2017-Jul-19 10:30N 49°56' W 001°42'917.4
2017-Jul-19 10:00N 50°05' W 001°45'917.4
2017-Jul-19 09:29N 50°14' W 001°47'817.3
2017-Jul-19 09:00N 50°22' W 001°49'1017.5
2017-Jul-19 08:24N 50°32' W 001°52'718.0
2017-Jul-19 08:00N 50°39' W 001°55'4 8.8
2017-Jul-19 07:30N 50°42' W 001°59'0 0.1
2017-Jul-19 07:00N 50°42' W 001°59'0 0.0
2017-Jul-19 06:30N 50°42' W 001°59'0 0.0
2017-Jul-19 06:00N 50°42' W 001°59'0 0.0
2017-Jul-19 05:31N 50°42' W 001°59'0 0.0
2017-Jul-19 05:00N 50°42' W 001°59'0 0.0
2017-Jul-19 04:30N 50°42' W 001°59'0 0.0
2017-Jul-19 04:00N 50°42' W 001°59'0 0.0
2017-Jul-19 03:30N 50°42' W 001°59'0 0.0
2017-Jul-19 03:00N 50°42' W 001°59'0 0.0
2017-Jul-19 02:30N 50°42' W 001°59'0 0.0
2017-Jul-19 02:00N 50°42' W 001°59'0 0.0
2017-Jul-19 01:30N 50°42' W 001°59'0 0.0
2017-Jul-19 01:00N 50°42' W 001°59'0 0.0
2017-Jul-19 00:30N 50°42' W 001°59'0 0.0
2017-Jul-19 00:00N 50°42' W 001°59'0 0.0
2017-Jul-18 23:30N 50°42' W 001°59'0 0.0
2017-Jul-18 23:00N 50°42' W 001°59'0 0.0
2017-Jul-18 22:30N 50°42' W 001°59'0 0.0
2017-Jul-18 22:01N 50°42' W 001°59'0 0.0
2017-Jul-18 21:30N 50°42' W 001°59'0 0.0
2017-Jul-18 21:00N 50°42' W 001°59'1 2.8
2017-Jul-18 20:30N 50°42' W 001°57'612.1
2017-Jul-18 20:01N 50°37' W 001°53'917.3
2017-Jul-18 19:29N 50°28' W 001°50'2517.6
2017-Jul-18 18:03N 50°03' W 001°42'117.3
2017-Jul-18 18:00N 50°02' W 001°41'917.5
2017-Jul-18 17:30N 49°54' W 001°39'917.4
2017-Jul-18 17:00N 49°45' W 001°36'612.4
2017-Jul-18 16:30N 49°39' W 001°37'0 0.2
2017-Jul-18 16:00N 49°39' W 001°37'0 0.0
2017-Jul-18 15:30N 49°39' W 001°37'0 0.0
2017-Jul-18 15:00N 49°39' W 001°37'0 0.0
2017-Jul-18 14:01N 49°39' W 001°37'0 0.0
2017-Jul-18 13:30N 49°39' W 001°37'0 0.0
2017-Jul-18 13:00N 49°39' W 001°37'0 0.0
2017-Jul-18 12:30N 49°39' W 001°37'0 0.0
2017-Jul-18 12:00N 49°39' W 001°37'0 0.4
2017-Jul-18 11:30N 49°39' W 001°37'612.0
2017-Jul-18 11:01N 49°45' W 001°40'917.7
2017-Jul-18 10:31N 49°53' W 001°42'917.8
2017-Jul-18 10:00N 50°02' W 001°44'917.6
2017-Jul-18 09:30N 50°11' W 001°46'917.4
2017-Jul-18 09:00N 50°19' W 001°49'917.7
2017-Jul-18 08:30N 50°28' W 001°51'918.1
2017-Jul-18 08:00N 50°37' W 001°54'612.0
2017-Jul-18 07:30N 50°42' W 001°58'1 1.4
2017-Jul-18 07:00N 50°42' W 001°59'0 0.0
2017-Jul-18 06:30N 50°42' W 001°59'0 0.0
2017-Jul-18 06:00N 50°42' W 001°59'0 0.0
2017-Jul-18 05:30N 50°42' W 001°59'0 0.0
2017-Jul-18 05:00N 50°42' W 001°59'0 0.0
2017-Jul-18 04:30N 50°42' W 001°59'0 0.0
2017-Jul-18 04:00N 50°42' W 001°59'0 0.0
2017-Jul-18 03:30N 50°42' W 001°59'0 0.0
2017-Jul-18 03:00N 50°42' W 001°59'0 0.0
2017-Jul-18 02:30N 50°42' W 001°59'0 0.0
2017-Jul-18 02:00N 50°42' W 001°59'0 0.0
2017-Jul-18 01:30N 50°42' W 001°59'0 0.0
2017-Jul-18 01:00N 50°42' W 001°59'0 0.0
2017-Jul-18 00:30N 50°42' W 001°59'0 0.0
2017-Jul-18 00:00N 50°42' W 001°59'0 0.0
2017-Jul-17 23:30N 50°42' W 001°59'0 0.0
2017-Jul-17 23:00N 50°42' W 001°59'0 0.0
2017-Jul-17 22:30N 50°42' W 001°59'0 0.0
2017-Jul-17 22:00N 50°42' W 001°59'0 0.0
2017-Jul-17 21:30N 50°42' W 001°59'0 0.0
2017-Jul-17 21:00N 50°42' W 001°59'1 1.0
2017-Jul-17 20:30N 50°42' W 001°59'5 9.2
2017-Jul-17 20:01N 50°39' W 001°55'917.1
2017-Jul-17 19:28N 50°30' W 001°51'1818.1
2017-Jul-17 18:30N 50°13' W 001°45'1017.9
2017-Jul-17 17:55N 50°02' W 001°42'718.0
2017-Jul-17 17:30N 49°55' W 001°40'918.0
2017-Jul-17 17:00N 49°46' W 001°37'714.1
2017-Jul-17 16:30N 49°39' W 001°37'0 0.6
2017-Jul-17 16:01N 49°39' W 001°37'0 0.0
2017-Jul-17 15:30N 49°39' W 001°37'0 0.0
2017-Jul-17 15:00N 49°39' W 001°37'0 0.0
2017-Jul-17 14:30N 49°39' W 001°37'0 0.0
2017-Jul-17 14:00N 49°39' W 001°37'0 0.0
2017-Jul-17 13:30N 49°39' W 001°37'0 0.0
2017-Jul-17 13:00N 49°39' W 001°37'0 0.0
2017-Jul-17 12:30N 49°39' W 001°37'0 0.0
2017-Jul-17 12:00N 49°39' W 001°37'0 0.4
2017-Jul-17 11:30N 49°39' W 001°37'612.9
2017-Jul-17 11:01N 49°45' W 001°42'918.1
2017-Jul-17 10:31N 49°54' W 001°41'918.0
2017-Jul-17 10:01N 50°03' W 001°44'917.9
2017-Jul-17 09:30N 50°11' W 001°47'918.1
2017-Jul-17 09:00N 50°21' W 001°49'918.2
2017-Jul-17 08:29N 50°30' W 001°52'918.7
2017-Jul-17 08:00N 50°38' W 001°55'510.0
2017-Jul-17 07:30N 50°42' W 001°59'0 0.0
2017-Jul-17 07:00N 50°42' W 001°59'0 0.0
2017-Jul-17 06:30N 50°42' W 001°59'0 0.0
2017-Jul-17 06:00N 50°42' W 001°59'0 0.0
2017-Jul-17 05:31N 50°42' W 001°59'0 0.0
2017-Jul-17 05:00N 50°42' W 001°59'0 0.0
2017-Jul-17 04:30N 50°42' W 001°59'0 0.0
2017-Jul-17 04:00N 50°42' W 001°59'0 0.0
2017-Jul-17 03:30N 50°42' W 001°59'0 0.0
2017-Jul-17 03:00N 50°42' W 001°59'0 0.0
2017-Jul-17 02:30N 50°42' W 001°59'0 0.0
2017-Jul-17 02:00N 50°42' W 001°59'0 0.0
2017-Jul-17 01:30N 50°42' W 001°59'0 0.0
2017-Jul-17 01:00N 50°42' W 001°59'0 0.0
2017-Jul-17 00:30N 50°42' W 001°59'0 0.0
2017-Jul-17 00:00N 50°42' W 001°59'0 0.0
2017-Jul-16 23:30N 50°42' W 001°59'0 0.0
2017-Jul-16 23:00N 50°42' W 001°59'0 0.0
2017-Jul-16 22:30N 50°42' W 001°59'0 0.0
2017-Jul-16 22:00N 50°42' W 001°59'0 0.0
2017-Jul-16 21:31N 50°42' W 001°59'0 0.0
2017-Jul-16 21:01N 50°42' W 001°59'0 0.2
2017-Jul-16 20:31N 50°42' W 001°60'4 7.3
2017-Jul-16 20:00N 50°40' W 001°56'816.2
2017-Jul-16 19:30N 50°32' W 001°53'2818.1
2017-Jul-16 17:56N 50°04' W 001°42'818.1
2017-Jul-16 17:30N 49°57' W 001°39'918.3
2017-Jul-16 17:00N 49°48' W 001°36'816.4
2017-Jul-16 16:31N 49°40' W 001°37'1 1.3
2017-Jul-16 16:00N 49°39' W 001°37'0 0.0
2017-Jul-16 15:31N 49°39' W 001°37'0 0.0
2017-Jul-16 15:00N 49°39' W 001°37'0 0.0
2017-Jul-16 14:30N 49°39' W 001°37'0 0.0
2017-Jul-16 14:01N 49°39' W 001°37'0 0.0
2017-Jul-16 13:31N 49°39' W 001°37'0 0.0
2017-Jul-16 13:01N 49°39' W 001°37'0 0.0
2017-Jul-16 12:30N 49°39' W 001°37'0 0.0
2017-Jul-16 12:00N 49°39' W 001°37'0 0.0
2017-Jul-16 11:30N 49°39' W 001°37'611.5
2017-Jul-16 11:00N 49°45' W 001°35'917.3
2017-Jul-16 10:30N 49°53' W 001°38'918.0
2017-Jul-16 10:00N 50°02' W 001°41'918.0
2017-Jul-16 09:30N 50°10' W 001°46'917.9
2017-Jul-16 09:00N 50°19' W 001°48'1018.0
2017-Jul-16 08:27N 50°29' W 001°51'818.3
2017-Jul-16 08:00N 50°37' W 001°54'611.7
2017-Jul-16 07:30N 50°42' W 001°58'1 2.1
2017-Jul-16 07:00N 50°42' W 001°59'0 0.0
2017-Jul-16 06:30N 50°42' W 001°59'0 0.0
2017-Jul-16 06:00N 50°42' W 001°59'0 0.0
2017-Jul-16 05:30N 50°42' W 001°59'0 0.0
2017-Jul-16 05:00N 50°42' W 001°59'0 0.0
2017-Jul-16 04:30N 50°42' W 001°59'0 0.0
2017-Jul-16 04:00N 50°42' W 001°59'0 0.0
2017-Jul-16 03:30N 50°42' W 001°59'0 0.0
2017-Jul-16 03:00N 50°42' W 001°59'0 0.0
2017-Jul-16 02:30N 50°42' W 001°59'0 0.0
2017-Jul-16 02:00N 50°42' W 001°59'0 0.0
2017-Jul-16 01:30N 50°42' W 001°59'0 0.0
2017-Jul-16 01:00N 50°42' W 001°59'0 0.0
2017-Jul-16 00:30N 50°42' W 001°59'0 0.0
2017-Jul-16 00:00N 50°42' W 001°59'0 0.0
2017-Jul-15 23:30N 50°42' W 001°59'0 0.0
2017-Jul-15 23:00N 50°42' W 001°59'0 0.0
2017-Jul-15 22:30N 50°42' W 001°59'0 0.0
2017-Jul-15 22:00N 50°42' W 001°59'0 0.0
2017-Jul-15 21:30N 50°42' W 001°59'0 0.0
2017-Jul-15 21:00N 50°42' W 001°59'1 1.9
2017-Jul-15 20:30N 50°42' W 001°58'510.1
2017-Jul-15 20:00N 50°38' W 001°54'3818.0
2017-Jul-15 17:54N 50°01' W 001°42'717.8
2017-Jul-15 17:30N 49°54' W 001°41'918.2
2017-Jul-15 17:00N 49°45' W 001°40'612.3
2017-Jul-15 16:31N 49°39' W 001°37'0 0.1
2017-Jul-15 16:00N 49°39' W 001°37'0 0.0
2017-Jul-15 15:31N 49°39' W 001°37'0 0.0
2017-Jul-15 15:01N 49°39' W 001°37'0 0.0
2017-Jul-15 14:00N 49°39' W 001°37'0 0.0
2017-Jul-15 13:31N 49°39' W 001°37'0 0.0
2017-Jul-15 13:00N 49°39' W 001°37'0 0.0
2017-Jul-15 12:31N 49°39' W 001°37'0 0.0
2017-Jul-15 12:01N 49°39' W 001°37'0 0.8
2017-Jul-15 11:31N 49°39' W 001°37'815.0
2017-Jul-15 11:00N 49°47' W 001°36'918.6
2017-Jul-15 10:31N 49°56' W 001°40'918.1
2017-Jul-15 10:00N 50°05' W 001°43'918.0
2017-Jul-15 09:31N 50°13' W 001°45'917.9
2017-Jul-15 09:00N 50°22' W 001°48'917.6
2017-Jul-15 08:28N 50°32' W 001°51'817.5
2017-Jul-15 08:00N 50°39' W 001°55'4 8.4
2017-Jul-15 07:30N 50°42' W 001°59'0 0.1
2017-Jul-15 07:00N 50°42' W 001°59'0 0.0
2017-Jul-15 06:30N 50°42' W 001°59'0 0.0
2017-Jul-15 06:00N 50°42' W 001°59'0 0.0
2017-Jul-15 05:30N 50°42' W 001°59'0 0.0
2017-Jul-15 05:00N 50°42' W 001°59'0 0.0
2017-Jul-15 04:30N 50°42' W 001°59'0 0.0
2017-Jul-15 04:00N 50°42' W 001°59'0 0.0
2017-Jul-15 03:30N 50°42' W 001°59'0 0.0
2017-Jul-15 03:00N 50°42' W 001°59'0 0.0
2017-Jul-15 02:30N 50°42' W 001°59'0 0.0
2017-Jul-15 02:00N 50°42' W 001°59'0 0.0
2017-Jul-15 01:30N 50°42' W 001°59'0 0.0
2017-Jul-15 01:00N 50°42' W 001°59'0 0.0
2017-Jul-15 00:30N 50°42' W 001°59'0 0.0
2017-Jul-15 00:00N 50°42' W 001°59'0 0.0
2017-Jul-14 23:30N 50°42' W 001°59'0 0.0
2017-Jul-14 23:00N 50°42' W 001°59'0 0.0
2017-Jul-14 22:30N 50°42' W 001°59'0 0.0
2017-Jul-14 22:00N 50°42' W 001°59'0 0.0
2017-Jul-14 21:30N 50°42' W 001°59'0 0.0
2017-Jul-14 21:00N 50°42' W 001°59'0 0.2
2017-Jul-14 20:31N 50°42' W 001°60'4 7.6
2017-Jul-14 20:00N 50°40' W 001°55'916.7
2017-Jul-14 19:29N 50°32' W 001°50'1418.2
2017-Jul-14 18:42N 50°17' W 001°47'418.1
2017-Jul-14 18:30N 50°14' W 001°47'918.2
2017-Jul-14 18:00N 50°05' W 001°45'918.0
2017-Jul-14 17:30N 49°56' W 001°43'918.2
2017-Jul-14 17:01N 49°47' W 001°41'815.9
2017-Jul-14 16:31N 49°39' W 001°37'1 1.2
2017-Jul-14 16:00N 49°39' W 001°37'0 0.0
2017-Jul-14 15:31N 49°39' W 001°37'0 0.0
2017-Jul-14 15:00N 49°39' W 001°37'0 0.0
2017-Jul-14 14:30N 49°39' W 001°37'0 0.0
2017-Jul-14 14:00N 49°39' W 001°37'0 0.0
2017-Jul-14 13:30N 49°39' W 001°37'0 0.0
2017-Jul-14 13:00N 49°39' W 001°37'0 0.0
2017-Jul-14 12:30N 49°39' W 001°37'0 0.0
2017-Jul-14 12:00N 49°39' W 001°37'0 0.6
2017-Jul-14 11:30N 49°39' W 001°37'714.3
2017-Jul-14 11:00N 49°46' W 001°37'918.8
2017-Jul-14 10:30N 49°56' W 001°40'918.3
2017-Jul-14 10:01N 50°05' W 001°42'918.1
2017-Jul-14 09:30N 50°14' W 001°44'1818.1
2017-Jul-14 08:30N 50°31' W 001°51'917.4
2017-Jul-14 08:00N 50°39' W 001°55'4 7.4
2017-Jul-14 07:30N 50°42' W 001°59'1 1.1
2017-Jul-14 07:00N 50°42' W 001°59'0 0.0
2017-Jul-14 06:30N 50°42' W 001°59'0 0.0
2017-Jul-14 06:00N 50°42' W 001°59'0 0.0
2017-Jul-14 05:30N 50°42' W 001°59'0 0.0
2017-Jul-14 05:00N 50°42' W 001°59'0 0.0
2017-Jul-14 04:30N 50°42' W 001°59'0 0.0
2017-Jul-14 04:00N 50°42' W 001°59'0 0.0
2017-Jul-14 03:30N 50°42' W 001°59'0 0.0
2017-Jul-14 03:00N 50°42' W 001°59'0 0.0
2017-Jul-14 02:30N 50°42' W 001°59'0 0.0
2017-Jul-14 02:00N 50°42' W 001°59'0 0.0
2017-Jul-14 01:30N 50°42' W 001°59'0 0.0
2017-Jul-14 01:00N 50°42' W 001°59'0 0.0
2017-Jul-14 00:30N 50°42' W 001°59'0 0.0
2017-Jul-14 00:00N 50°42' W 001°59'0 0.0
2017-Jul-13 23:30N 50°42' W 001°59'0 0.0
2017-Jul-13 23:00N 50°42' W 001°59'0 0.0
2017-Jul-13 22:30N 50°42' W 001°59'0 0.0
2017-Jul-13 22:00N 50°42' W 001°59'0 0.0
2017-Jul-13 21:30N 50°42' W 001°59'0 0.0
2017-Jul-13 21:00N 50°42' W 001°59'0 0.4
2017-Jul-13 20:30N 50°42' W 001°59'510.9
2017-Jul-13 20:00N 50°38' W 001°54'918.2
2017-Jul-13 19:30N 50°29' W 001°51'918.4
2017-Jul-13 19:01N 50°20' W 001°49'918.4
2017-Jul-13 18:30N 50°11' W 001°48'918.3
2017-Jul-13 18:00N 50°02' W 001°46'918.2
2017-Jul-13 17:31N 49°53' W 001°44'918.5
2017-Jul-13 17:00N 49°44' W 001°41'611.0
2017-Jul-13 16:30N 49°39' W 001°37'0 0.0
2017-Jul-13 16:00N 49°39' W 001°37'0 0.0
2017-Jul-13 15:30N 49°39' W 001°37'0 0.0
2017-Jul-13 15:00N 49°39' W 001°37'0 0.0
2017-Jul-13 14:30N 49°39' W 001°37'0 0.0
2017-Jul-13 14:00N 49°39' W 001°37'0 0.0
2017-Jul-13 13:30N 49°39' W 001°37'0 0.0
2017-Jul-13 13:00N 49°39' W 001°37'0 0.0
2017-Jul-13 12:30N 49°39' W 001°37'0 0.0
2017-Jul-13 12:00N 49°39' W 001°37'0 1.0
2017-Jul-13 11:30N 49°39' W 001°37'510.8
2017-Jul-13 11:00N 49°45' W 001°36'1019.1
2017-Jul-13 10:30N 49°54' W 001°41'918.5
2017-Jul-13 10:00N 50°03' W 001°45'917.3
2017-Jul-13 09:30N 50°11' W 001°45'918.4
2017-Jul-13 09:00N 50°20' W 001°48'918.3
2017-Jul-13 08:30N 50°29' W 001°51'917.7
2017-Jul-13 08:00N 50°38' W 001°54'5 9.8
2017-Jul-13 07:31N 50°42' W 001°58'1 1.9
2017-Jul-13 07:00N 50°42' W 001°59'0 0.0
2017-Jul-13 06:30N 50°42' W 001°59'0 0.0
2017-Jul-13 06:01N 50°42' W 001°59'2 3.3
2017-Jul-13 05:31N 50°42' W 001°57'611.0
2017-Jul-13 05:00N 50°37' W 001°53'916.1
2017-Jul-13 04:28N 50°28' W 001°51'613.7
2017-Jul-13 04:01N 50°22' W 001°50'813.8
2017-Jul-13 03:27N 50°14' W 001°50'614.0
2017-Jul-13 03:00N 50°08' W 001°50'714.0
2017-Jul-13 02:30N 50°01' W 001°49'714.7
2017-Jul-13 02:01N 49°54' W 001°45'714.5
2017-Jul-13 01:31N 49°47' W 001°42'1 1.8
2017-Jul-13 01:00N 49°47' W 001°41'0 1.0
2017-Jul-13 00:30N 49°47' W 001°41'0 0.6
2017-Jul-13 00:00N 49°47' W 001°41'0 0.9
2017-Jul-12 23:30N 49°47' W 001°41'1 1.7
2017-Jul-12 23:00N 49°48' W 001°43'1 2.8
2017-Jul-12 22:30N 49°48' W 001°45'2 3.6
2017-Jul-12 22:00N 49°48' W 001°48'2 3.7
2017-Jul-12 21:30N 49°47' W 001°50'611.3
2017-Jul-12 21:00N 49°44' W 001°43'611.7
2017-Jul-12 20:30N 49°39' W 001°37'1 1.3
2017-Jul-12 20:00N 49°39' W 001°37'0 0.0
2017-Jul-12 19:30N 49°39' W 001°37'0 0.0
2017-Jul-12 19:00N 49°39' W 001°37'0 0.0
2017-Jul-12 18:30N 49°39' W 001°37'0 0.0
2017-Jul-12 18:00N 49°39' W 001°37'0 0.0
2017-Jul-12 17:30N 49°39' W 001°37'0 0.0
2017-Jul-12 17:00N 49°39' W 001°37'0 0.0
2017-Jul-12 16:30N 49°39' W 001°37'0 0.0
2017-Jul-12 16:00N 49°39' W 001°37'0 0.0
2017-Jul-12 15:30N 49°39' W 001°37'0 0.0
2017-Jul-12 15:00N 49°39' W 001°37'0 0.0
2017-Jul-12 14:00N 49°39' W 001°37'0 0.0
2017-Jul-12 13:30N 49°39' W 001°37'0 0.0
2017-Jul-12 13:00N 49°39' W 001°37'0 0.0
2017-Jul-12 12:31N 49°39' W 001°37'0 0.0
2017-Jul-12 12:00N 49°39' W 001°37'0 0.8
2017-Jul-12 11:30N 49°39' W 001°37'815.8
2017-Jul-12 11:00N 49°47' W 001°38'919.1
2017-Jul-12 10:31N 49°56' W 001°41'918.5
2017-Jul-12 10:01N 50°05' W 001°44'918.5
2017-Jul-12 09:30N 50°14' W 001°47'1518.4
2017-Jul-12 08:40N 50°30' W 001°52'318.2
2017-Jul-12 08:30N 50°33' W 001°53'815.8
2017-Jul-12 08:00N 50°40' W 001°56'3 6.2
2017-Jul-12 07:30N 50°42' W 001°59'0 0.0
2017-Jul-12 07:00N 50°42' W 001°59'0 0.0
2017-Jul-12 06:30N 50°42' W 001°59'0 0.0
2017-Jul-12 06:00N 50°42' W 001°59'2 3.8
2017-Jul-12 05:30N 50°41' W 001°57'713.1
2017-Jul-12 05:01N 50°35' W 001°53'711.9
2017-Jul-12 04:27N 50°29' W 001°51'1313.8
2017-Jul-12 03:32N 50°16' W 001°49'113.7
2017-Jul-12 03:29N 50°15' W 001°49'1014.4
2017-Jul-12 02:45N 50°05' W 001°44'414.4
2017-Jul-12 02:30N 50°02' W 001°42'714.4
2017-Jul-12 02:00N 49°55' W 001°40'714.5
2017-Jul-12 01:30N 49°48' W 001°37'3 5.3
2017-Jul-12 01:00N 49°45' W 001°36'0 0.8
2017-Jul-12 00:31N 49°45' W 001°37'1 1.5
2017-Jul-12 00:00N 49°45' W 001°38'1 2.2
2017-Jul-11 23:30N 49°45' W 001°39'1 2.5
2017-Jul-11 23:00N 49°45' W 001°41'1 2.9
2017-Jul-11 22:30N 49°45' W 001°44'1 2.8
2017-Jul-11 22:01N 49°45' W 001°46'1 2.2
2017-Jul-11 21:30N 49°45' W 001°47'3 6.2
2017-Jul-11 21:00N 49°43' W 001°43'510.7
2017-Jul-11 20:31N 49°40' W 001°37'1 1.9
2017-Jul-11 20:00N 49°39' W 001°37'0 0.0
2017-Jul-11 19:30N 49°39' W 001°37'0 0.0
2017-Jul-11 19:00N 49°39' W 001°37'0 0.0
2017-Jul-11 18:30N 49°39' W 001°37'0 0.0
2017-Jul-11 18:01N 49°39' W 001°37'0 0.0
2017-Jul-11 17:30N 49°39' W 001°37'0 0.0
2017-Jul-11 17:01N 49°39' W 001°37'0 0.0
2017-Jul-11 16:30N 49°39' W 001°37'0 0.0
2017-Jul-11 16:00N 49°39' W 001°37'0 0.0
2017-Jul-11 15:30N 49°39' W 001°37'0 0.0
2017-Jul-11 15:00N 49°39' W 001°37'0 0.0
2017-Jul-11 14:30N 49°39' W 001°37'0 0.0
2017-Jul-11 14:01N 49°39' W 001°37'0 0.0
2017-Jul-11 13:30N 49°39' W 001°37'0 0.0
2017-Jul-11 13:00N 49°39' W 001°37'0 0.0
2017-Jul-11 12:31N 49°39' W 001°37'0 0.0
2017-Jul-11 12:00N 49°39' W 001°37'0 0.6
2017-Jul-11 11:30N 49°39' W 001°37'714.6
2017-Jul-11 11:00N 49°46' W 001°36'918.3
2017-Jul-11 10:30N 49°56' W 001°38'918.3
2017-Jul-11 10:00N 50°04' W 001°42'918.5
2017-Jul-11 09:31N 50°13' W 001°47'1718.0
2017-Jul-11 08:35N 50°29' W 001°52'117.8
2017-Jul-11 08:30N 50°31' W 001°53'816.4
2017-Jul-11 08:01N 50°39' W 001°55'5 9.4
2017-Jul-11 07:30N 50°42' W 001°59'0 0.2
2017-Jul-11 07:00N 50°42' W 001°59'0 0.0
2017-Jul-11 06:30N 50°42' W 001°59'0 0.0
2017-Jul-11 06:00N 50°42' W 001°59'0 0.0
2017-Jul-11 05:30N 50°42' W 001°59'0 0.0
2017-Jul-11 05:00N 50°42' W 001°59'0 0.0
2017-Jul-11 04:30N 50°42' W 001°59'0 0.0
2017-Jul-11 04:00N 50°42' W 001°59'0 0.0
2017-Jul-11 03:30N 50°42' W 001°59'0 0.0
2017-Jul-11 03:00N 50°42' W 001°59'0 0.0
2017-Jul-11 02:30N 50°42' W 001°59'0 0.0
2017-Jul-11 02:00N 50°42' W 001°59'0 0.0
2017-Jul-11 01:30N 50°42' W 001°59'0 0.0
2017-Jul-11 01:00N 50°42' W 001°59'0 0.0
2017-Jul-11 00:30N 50°42' W 001°59'0 0.0
2017-Jul-11 00:00N 50°42' W 001°59'0 0.0
2017-Jul-10 23:30N 50°42' W 001°59'0 0.0
2017-Jul-10 23:00N 50°42' W 001°59'0 0.0
2017-Jul-10 22:30N 50°42' W 001°59'0 0.0
2017-Jul-10 22:00N 50°42' W 001°59'0 0.0
2017-Jul-10 21:30N 50°42' W 001°59'0 0.0
2017-Jul-10 21:00N 50°42' W 001°59'0 0.2
2017-Jul-10 20:31N 50°42' W 001°60'4 8.8
2017-Jul-10 20:01N 50°39' W 001°55'917.6
2017-Jul-10 19:30N 50°31' W 001°50'  
Track history (hours):
 
Tides and Currents Weather Stations Pressure Air Temp Water Temp Dewpoint Dewpoint Depression Visibility Wind Speed Wind Dir Waves Ship Positions

Barfleur

Operator: Brittany Ferries

Last reported at 2017-Jul-20 18:06 UTC. Time now 2017-Jul-20 18:38 UTC.
Position N 50°03' W 001°45'.

Length 158 m; draft 5 m.

Type: Passenger vessel. MMSI: 227289000.

Date/timePositionNaut miles runAvg speedWind from/ knotsBaromVisibWave heightAir tempDewpointWater temp
2017-Jul-20 18:06N 50°03' W 001°45'217.8
2017-Jul-20 18:00N 50°02' W 001°44'917.4
2017-Jul-20 17:30N 49°53' W 001°42'917.3
2017-Jul-20 17:00N 49°44' W 001°40'611.4
2017-Jul-20 16:30N 49°39' W 001°37'0 0.6
2017-Jul-20 16:00N 49°39' W 001°37'0 0.0
2017-Jul-20 15:30N 49°39' W 001°37'0 0.0
2017-Jul-20 15:01N 49°39' W 001°37'0 0.0
2017-Jul-20 14:00N 49°39' W 001°37'0 0.0
2017-Jul-20 13:30N 49°39' W 001°37'0 0.0
2017-Jul-20 13:00N 49°39' W 001°37'0 0.0
2017-Jul-20 12:30N 49°39' W 001°37'0 0.0
2017-Jul-20 12:00N 49°39' W 001°37'1 2.0
2017-Jul-20 11:30N 49°40' W 001°37'815.1
2017-Jul-20 11:01N 49°47' W 001°42'917.5
2017-Jul-20 10:30N 49°55' W 001°45'918.0
2017-Jul-20 10:00N 50°04' W 001°47'918.3
2017-Jul-20 09:30N 50°13' W 001°48'1718.2
2017-Jul-20 08:34N 50°30' W 001°52'118.6
2017-Jul-20 08:30N 50°31' W 001°52'917.5
2017-Jul-20 08:00N 50°40' W 001°56'4 7.3
2017-Jul-20 07:30N 50°42' W 001°59'0 0.0
2017-Jul-20 07:00N 50°42' W 001°59'0 0.0
2017-Jul-20 06:30N 50°42' W 001°59'0 0.0
2017-Jul-20 06:00N 50°42' W 001°59'0 0.0
2017-Jul-20 05:30N 50°42' W 001°59'0 0.0
2017-Jul-20 05:00N 50°42' W 001°59'0 0.0
2017-Jul-20 04:30N 50°42' W 001°59'0 0.0
2017-Jul-20 04:00N 50°42' W 001°59'0 0.0
2017-Jul-20 03:30N 50°42' W 001°59'0 0.0
2017-Jul-20 03:00N 50°42' W 001°59'0 0.0
2017-Jul-20 02:30N 50°42' W 001°59'0 0.0
2017-Jul-20 02:00N 50°42' W 001°59'0 0.0
2017-Jul-20 01:30N 50°42' W 001°59'0 0.0
2017-Jul-20 01:00N 50°42' W 001°59'0 0.0
2017-Jul-20 00:30N 50°42' W 001°59'0 0.0
2017-Jul-20 00:00N 50°42' W 001°59'0 0.0
2017-Jul-19 23:30N 50°42' W 001°59'0 0.0
2017-Jul-19 23:00N 50°42' W 001°59'0 0.0
2017-Jul-19 22:30N 50°42' W 001°59'0 0.0
2017-Jul-19 22:00N 50°42' W 001°59'0 0.0
2017-Jul-19 21:30N 50°42' W 001°59'0 0.0
2017-Jul-19 21:00N 50°42' W 001°59'2 3.2
2017-Jul-19 20:30N 50°42' W 001°57'713.0
2017-Jul-19 20:00N 50°36' W 001°53'3618.0
2017-Jul-19 17:59N 50°00' W 001°43'817.8
2017-Jul-19 17:30N 49°52' W 001°41'917.3
2017-Jul-19 17:00N 49°43' W 001°37'5 9.0
2017-Jul-19 16:30N 49°39' W 001°37'0 0.0
2017-Jul-19 16:00N 49°39' W 001°37'0 0.0
2017-Jul-19 15:31N 49°39' W 001°37'2 3.4
2017-Jul-19 15:00N 49°40' W 001°38'815.6
2017-Jul-19 14:30N 49°48' W 001°37'5 9.3
2017-Jul-19 14:00N 49°52' W 001°35'612.8
2017-Jul-19 13:30N 49°46' W 001°36'611.3
2017-Jul-19 13:00N 49°41' W 001°39'2 5.0
2017-Jul-19 12:31N 49°39' W 001°37'0 0.0
2017-Jul-19 12:00N 49°39' W 001°37'1 2.3
2017-Jul-19 11:30N 49°40' W 001°37'815.7
2017-Jul-19 11:00N 49°47' W 001°41'917.3
2017-Jul-19 10:30N 49°56' W 001°42'917.4
2017-Jul-19 10:00N 50°05' W 001°45'917.4
2017-Jul-19 09:29N 50°14' W 001°47'817.3
2017-Jul-19 09:00N 50°22' W 001°49'1017.5
2017-Jul-19 08:24N 50°32' W 001°52'718.0
2017-Jul-19 08:00N 50°39' W 001°55'4 8.8
2017-Jul-19 07:30N 50°42' W 001°59'0 0.1
2017-Jul-19 07:00N 50°42' W 001°59'0 0.0
2017-Jul-19 06:30N 50°42' W 001°59'0 0.0
2017-Jul-19 06:00N 50°42' W 001°59'0 0.0
2017-Jul-19 05:31N 50°42' W 001°59'0 0.0
2017-Jul-19 05:00N 50°42' W 001°59'0 0.0
2017-Jul-19 04:30N 50°42' W 001°59'0 0.0
2017-Jul-19 04:00N 50°42' W 001°59'0 0.0
2017-Jul-19 03:30N 50°42' W 001°59'0 0.0
2017-Jul-19 03:00N 50°42' W 001°59'0 0.0
2017-Jul-19 02:30N 50°42' W 001°59'0 0.0
2017-Jul-19 02:00N 50°42' W 001°59'0 0.0
2017-Jul-19 01:30N 50°42' W 001°59'0 0.0
2017-Jul-19 01:00N 50°42' W 001°59'0 0.0
2017-Jul-19 00:30N 50°42' W 001°59'0 0.0
2017-Jul-19 00:00N 50°42' W 001°59'0 0.0
2017-Jul-18 23:30N 50°42' W 001°59'0 0.0
2017-Jul-18 23:00N 50°42' W 001°59'0 0.0
2017-Jul-18 22:30N 50°42' W 001°59'0 0.0
2017-Jul-18 22:01N 50°42' W 001°59'0 0.0
2017-Jul-18 21:30N 50°42' W 001°59'0 0.0
2017-Jul-18 21:00N 50°42' W 001°59'1 2.8
2017-Jul-18 20:30N 50°42' W 001°57'612.1
2017-Jul-18 20:01N 50°37' W 001°53'917.3
2017-Jul-18 19:29N 50°28' W 001°50'2517.6
2017-Jul-18 18:03N 50°03' W 001°42'117.3
2017-Jul-18 18:00N 50°02' W 001°41'917.5
2017-Jul-18 17:30N 49°54' W 001°39'917.4
2017-Jul-18 17:00N 49°45' W 001°36'612.4
2017-Jul-18 16:30N 49°39' W 001°37'0 0.2
2017-Jul-18 16:00N 49°39' W 001°37'0 0.0
2017-Jul-18 15:30N 49°39' W 001°37'0 0.0
2017-Jul-18 15:00N 49°39' W 001°37'0 0.0
2017-Jul-18 14:01N 49°39' W 001°37'0 0.0
2017-Jul-18 13:30N 49°39' W 001°37'0 0.0
2017-Jul-18 13:00N 49°39' W 001°37'0 0.0
2017-Jul-18 12:30N 49°39' W 001°37'0 0.0
2017-Jul-18 12:00N 49°39' W 001°37'0 0.4
2017-Jul-18 11:30N 49°39' W 001°37'612.0
2017-Jul-18 11:01N 49°45' W 001°40'917.7
2017-Jul-18 10:31N 49°53' W 001°42'917.8
2017-Jul-18 10:00N 50°02' W 001°44'917.6
2017-Jul-18 09:30N 50°11' W 001°46'917.4
2017-Jul-18 09:00N 50°19' W 001°49'917.7
2017-Jul-18 08:30N 50°28' W 001°51'918.1
2017-Jul-18 08:00N 50°37' W 001°54'612.0
2017-Jul-18 07:30N 50°42' W 001°58'1 1.4
2017-Jul-18 07:00N 50°42' W 001°59'0 0.0
2017-Jul-18 06:30N 50°42' W 001°59'0 0.0
2017-Jul-18 06:00N 50°42' W 001°59'0 0.0
2017-Jul-18 05:30N 50°42' W 001°59'0 0.0
2017-Jul-18 05:00N 50°42' W 001°59'0 0.0
2017-Jul-18 04:30N 50°42' W 001°59'0 0.0
2017-Jul-18 04:00N 50°42' W 001°59'0 0.0
2017-Jul-18 03:30N 50°42' W 001°59'0 0.0
2017-Jul-18 03:00N 50°42' W 001°59'0 0.0
2017-Jul-18 02:30N 50°42' W 001°59'0 0.0
2017-Jul-18 02:00N 50°42' W 001°59'0 0.0
2017-Jul-18 01:30N 50°42' W 001°59'0 0.0
2017-Jul-18 01:00N 50°42' W 001°59'0 0.0
2017-Jul-18 00:30N 50°42' W 001°59'0 0.0
2017-Jul-18 00:00N 50°42' W 001°59'0 0.0
2017-Jul-17 23:30N 50°42' W 001°59'0 0.0
2017-Jul-17 23:00N 50°42' W 001°59'0 0.0
2017-Jul-17 22:30N 50°42' W 001°59'0 0.0
2017-Jul-17 22:00N 50°42' W 001°59'0 0.0
2017-Jul-17 21:30N 50°42' W 001°59'0 0.0
2017-Jul-17 21:00N 50°42' W 001°59'1 1.0
2017-Jul-17 20:30N 50°42' W 001°59'5 9.2
2017-Jul-17 20:01N 50°39' W 001°55'917.1
2017-Jul-17 19:28N 50°30' W 001°51'1818.1
2017-Jul-17 18:30N 50°13' W 001°45'1017.9
2017-Jul-17 17:55N 50°02' W 001°42'718.0
2017-Jul-17 17:30N 49°55' W 001°40'918.0
2017-Jul-17 17:00N 49°46' W 001°37'714.1
2017-Jul-17 16:30N 49°39' W 001°37'0 0.6
2017-Jul-17 16:01N 49°39' W 001°37'0 0.0
2017-Jul-17 15:30N 49°39' W 001°37'0 0.0
2017-Jul-17 15:00N 49°39' W 001°37'0 0.0
2017-Jul-17 14:30N 49°39' W 001°37'0 0.0
2017-Jul-17 14:00N 49°39' W 001°37'0 0.0
2017-Jul-17 13:30N 49°39' W 001°37'0 0.0
2017-Jul-17 13:00N 49°39' W 001°37'0 0.0
2017-Jul-17 12:30N 49°39' W 001°37'0 0.0
2017-Jul-17 12:00N 49°39' W 001°37'0 0.4
2017-Jul-17 11:30N 49°39' W 001°37'612.9
2017-Jul-17 11:01N 49°45' W 001°42'918.1
2017-Jul-17 10:31N 49°54' W 001°41'918.0
2017-Jul-17 10:01N 50°03' W 001°44'917.9
2017-Jul-17 09:30N 50°11' W 001°47'918.1
2017-Jul-17 09:00N 50°21' W 001°49'918.2
2017-Jul-17 08:29N 50°30' W 001°52'918.7
2017-Jul-17 08:00N 50°38' W 001°55'510.0
2017-Jul-17 07:30N 50°42' W 001°59'0 0.0
2017-Jul-17 07:00N 50°42' W 001°59'0 0.0
2017-Jul-17 06:30N 50°42' W 001°59'0 0.0
2017-Jul-17 06:00N 50°42' W 001°59'0 0.0
2017-Jul-17 05:31N 50°42' W 001°59'0 0.0
2017-Jul-17 05:00N 50°42' W 001°59'0 0.0
2017-Jul-17 04:30N 50°42' W 001°59'0 0.0
2017-Jul-17 04:00N 50°42' W 001°59'0 0.0
2017-Jul-17 03:30N 50°42' W 001°59'0 0.0
2017-Jul-17 03:00N 50°42' W 001°59'0 0.0
2017-Jul-17 02:30N 50°42' W 001°59'0 0.0
2017-Jul-17 02:00N 50°42' W 001°59'0 0.0
2017-Jul-17 01:30N 50°42' W 001°59'0 0.0
2017-Jul-17 01:00N 50°42' W 001°59'0 0.0
2017-Jul-17 00:30N 50°42' W 001°59'0 0.0
2017-Jul-17 00:00N 50°42' W 001°59'0 0.0
2017-Jul-16 23:30N 50°42' W 001°59'0 0.0
2017-Jul-16 23:00N 50°42' W 001°59'0 0.0
2017-Jul-16 22:30N 50°42' W 001°59'0 0.0
2017-Jul-16 22:00N 50°42' W 001°59'0 0.0
2017-Jul-16 21:31N 50°42' W 001°59'0 0.0
2017-Jul-16 21:01N 50°42' W 001°59'0 0.2
2017-Jul-16 20:31N 50°42' W 001°60'4 7.3
2017-Jul-16 20:00N 50°40' W 001°56'816.2
2017-Jul-16 19:30N 50°32' W 001°53'2818.1
2017-Jul-16 17:56N 50°04' W 001°42'818.1
2017-Jul-16 17:30N 49°57' W 001°39'918.3
2017-Jul-16 17:00N 49°48' W 001°36'816.4
2017-Jul-16 16:31N 49°40' W 001°37'1 1.3
2017-Jul-16 16:00N 49°39' W 001°37'0 0.0
2017-Jul-16 15:31N 49°39' W 001°37'0 0.0
2017-Jul-16 15:00N 49°39' W 001°37'0 0.0
2017-Jul-16 14:30N 49°39' W 001°37'0 0.0
2017-Jul-16 14:01N 49°39' W 001°37'0 0.0
2017-Jul-16 13:31N 49°39' W 001°37'0 0.0
2017-Jul-16 13:01N 49°39' W 001°37'0 0.0
2017-Jul-16 12:30N 49°39' W 001°37'0 0.0
2017-Jul-16 12:00N 49°39' W 001°37'0 0.0
2017-Jul-16 11:30N 49°39' W 001°37'611.5
2017-Jul-16 11:00N 49°45' W 001°35'917.3
2017-Jul-16 10:30N 49°53' W 001°38'918.0
2017-Jul-16 10:00N 50°02' W 001°41'918.0
2017-Jul-16 09:30N 50°10' W 001°46'917.9
2017-Jul-16 09:00N 50°19' W 001°48'1018.0
2017-Jul-16 08:27N 50°29' W 001°51'818.3
2017-Jul-16 08:00N 50°37' W 001°54'611.7
2017-Jul-16 07:30N 50°42' W 001°58'1 2.1
2017-Jul-16 07:00N 50°42' W 001°59'0 0.0
2017-Jul-16 06:30N 50°42' W 001°59'0 0.0
2017-Jul-16 06:00N 50°42' W 001°59'0 0.0
2017-Jul-16 05:30N 50°42' W 001°59'0 0.0
2017-Jul-16 05:00N 50°42' W 001°59'0 0.0
2017-Jul-16 04:30N 50°42' W 001°59'0 0.0
2017-Jul-16 04:00N 50°42' W 001°59'0 0.0
2017-Jul-16 03:30N 50°42' W 001°59'0 0.0
2017-Jul-16 03:00N 50°42' W 001°59'0 0.0
2017-Jul-16 02:30N 50°42' W 001°59'0 0.0
2017-Jul-16 02:00N 50°42' W 001°59'0 0.0
2017-Jul-16 01:30N 50°42' W 001°59'0 0.0
2017-Jul-16 01:00N 50°42' W 001°59'0 0.0
2017-Jul-16 00:30N 50°42' W 001°59'0 0.0
2017-Jul-16 00:00N 50°42' W 001°59'0 0.0
2017-Jul-15 23:30N 50°42' W 001°59'0 0.0
2017-Jul-15 23:00N 50°42' W 001°59'0 0.0
2017-Jul-15 22:30N 50°42' W 001°59'0 0.0
2017-Jul-15 22:00N 50°42' W 001°59'0 0.0
2017-Jul-15 21:30N 50°42' W 001°59'0 0.0
2017-Jul-15 21:00N 50°42' W 001°59'1 1.9
2017-Jul-15 20:30N 50°42' W 001°58'510.1
2017-Jul-15 20:00N 50°38' W 001°54'3818.0
2017-Jul-15 17:54N 50°01' W 001°42'717.8
2017-Jul-15 17:30N 49°54' W 001°41'918.2
2017-Jul-15 17:00N 49°45' W 001°40'612.3
2017-Jul-15 16:31N 49°39' W 001°37'0 0.1
2017-Jul-15 16:00N 49°39' W 001°37'0 0.0
2017-Jul-15 15:31N 49°39' W 001°37'0 0.0
2017-Jul-15 15:01N 49°39' W 001°37'0 0.0
2017-Jul-15 14:00N 49°39' W 001°37'0 0.0
2017-Jul-15 13:31N 49°39' W 001°37'0 0.0
2017-Jul-15 13:00N 49°39' W 001°37'0 0.0
2017-Jul-15 12:31N 49°39' W 001°37'0 0.0
2017-Jul-15 12:01N 49°39' W 001°37'0 0.8
2017-Jul-15 11:31N 49°39' W 001°37'815.0
2017-Jul-15 11:00N 49°47' W 001°36'918.6
2017-Jul-15 10:31N 49°56' W 001°40'918.1
2017-Jul-15 10:00N 50°05' W 001°43'918.0
2017-Jul-15 09:31N 50°13' W 001°45'917.9
2017-Jul-15 09:00N 50°22' W 001°48'917.6
2017-Jul-15 08:28N 50°32' W 001°51'817.5
2017-Jul-15 08:00N 50°39' W 001°55'4 8.4
2017-Jul-15 07:30N 50°42' W 001°59'0 0.1
2017-Jul-15 07:00N 50°42' W 001°59'0 0.0
2017-Jul-15 06:30N 50°42' W 001°59'0 0.0
2017-Jul-15 06:00N 50°42' W 001°59'0 0.0
2017-Jul-15 05:30N 50°42' W 001°59'0 0.0
2017-Jul-15 05:00N 50°42' W 001°59'0 0.0
2017-Jul-15 04:30N 50°42' W 001°59'0 0.0
2017-Jul-15 04:00N 50°42' W 001°59'0 0.0
2017-Jul-15 03:30N 50°42' W 001°59'0 0.0
2017-Jul-15 03:00N 50°42' W 001°59'0 0.0
2017-Jul-15 02:30N 50°42' W 001°59'0 0.0
2017-Jul-15 02:00N 50°42' W 001°59'0 0.0
2017-Jul-15 01:30N 50°42' W 001°59'0 0.0
2017-Jul-15 01:00N 50°42' W 001°59'0 0.0
2017-Jul-15 00:30N 50°42' W 001°59'0 0.0
2017-Jul-15 00:00N 50°42' W 001°59'0 0.0
2017-Jul-14 23:30N 50°42' W 001°59'0 0.0
2017-Jul-14 23:00N 50°42' W 001°59'0 0.0
2017-Jul-14 22:30N 50°42' W 001°59'0 0.0
2017-Jul-14 22:00N 50°42' W 001°59'0 0.0
2017-Jul-14 21:30N 50°42' W 001°59'0 0.0
2017-Jul-14 21:00N 50°42' W 001°59'0 0.2
2017-Jul-14 20:31N 50°42' W 001°60'4 7.6
2017-Jul-14 20:00N 50°40' W 001°55'916.7
2017-Jul-14 19:29N 50°32' W 001°50'1418.2
2017-Jul-14 18:42N 50°17' W 001°47'418.1
2017-Jul-14 18:30N 50°14' W 001°47'918.2
2017-Jul-14 18:00N 50°05' W 001°45'918.0
2017-Jul-14 17:30N 49°56' W 001°43'918.2
2017-Jul-14 17:01N 49°47' W 001°41'815.9
2017-Jul-14 16:31N 49°39' W 001°37'1 1.2
2017-Jul-14 16:00N 49°39' W 001°37'0 0.0
2017-Jul-14 15:31N 49°39' W 001°37'0 0.0
2017-Jul-14 15:00N 49°39' W 001°37'0 0.0
2017-Jul-14 14:30N 49°39' W 001°37'0 0.0
2017-Jul-14 14:00N 49°39' W 001°37'0 0.0
2017-Jul-14 13:30N 49°39' W 001°37'0 0.0
2017-Jul-14 13:00N 49°39' W 001°37'0 0.0
2017-Jul-14 12:30N 49°39' W 001°37'0 0.0
2017-Jul-14 12:00N 49°39' W 001°37'0 0.6
2017-Jul-14 11:30N 49°39' W 001°37'714.3
2017-Jul-14 11:00N 49°46' W 001°37'918.8
2017-Jul-14 10:30N 49°56' W 001°40'918.3
2017-Jul-14 10:01N 50°05' W 001°42'918.1
2017-Jul-14 09:30N 50°14' W 001°44'1818.1
2017-Jul-14 08:30N 50°31' W 001°51'917.4
2017-Jul-14 08:00N 50°39' W 001°55'4 7.4
2017-Jul-14 07:30N 50°42' W 001°59'1 1.1
2017-Jul-14 07:00N 50°42' W 001°59'0 0.0
2017-Jul-14 06:30N 50°42' W 001°59'0 0.0
2017-Jul-14 06:00N 50°42' W 001°59'0 0.0
2017-Jul-14 05:30N 50°42' W 001°59'0 0.0
2017-Jul-14 05:00N 50°42' W 001°59'0 0.0
2017-Jul-14 04:30N 50°42' W 001°59'0 0.0
2017-Jul-14 04:00N 50°42' W 001°59'0 0.0
2017-Jul-14 03:30N 50°42' W 001°59'0 0.0
2017-Jul-14 03:00N 50°42' W 001°59'0 0.0
2017-Jul-14 02:30N 50°42' W 001°59'0 0.0
2017-Jul-14 02:00N 50°42' W 001°59'0 0.0
2017-Jul-14 01:30N 50°42' W 001°59'0 0.0
2017-Jul-14 01:00N 50°42' W 001°59'0 0.0
2017-Jul-14 00:30N 50°42' W 001°59'0 0.0
2017-Jul-14 00:00N 50°42' W 001°59'0 0.0
2017-Jul-13 23:30N 50°42' W 001°59'0 0.0
2017-Jul-13 23:00N 50°42' W 001°59'0 0.0
2017-Jul-13 22:30N 50°42' W 001°59'0 0.0
2017-Jul-13 22:00N 50°42' W 001°59'0 0.0
2017-Jul-13 21:30N 50°42' W 001°59'0 0.0
2017-Jul-13 21:00N 50°42' W 001°59'0 0.4
2017-Jul-13 20:30N 50°42' W 001°59'510.9
2017-Jul-13 20:00N 50°38' W 001°54'918.2
2017-Jul-13 19:30N 50°29' W 001°51'918.4
2017-Jul-13 19:01N 50°20' W 001°49'918.4
2017-Jul-13 18:30N 50°11' W 001°48'918.3
2017-Jul-13 18:00N 50°02' W 001°46'918.2
2017-Jul-13 17:31N 49°53' W 001°44'918.5
2017-Jul-13 17:00N 49°44' W 001°41'611.0
2017-Jul-13 16:30N 49°39' W 001°37'0 0.0
2017-Jul-13 16:00N 49°39' W 001°37'0 0.0
2017-Jul-13 15:30N 49°39' W 001°37'0 0.0
2017-Jul-13 15:00N 49°39' W 001°37'0 0.0
2017-Jul-13 14:30N 49°39' W 001°37'0 0.0
2017-Jul-13 14:00N 49°39' W 001°37'0 0.0
2017-Jul-13 13:30N 49°39' W 001°37'0 0.0
2017-Jul-13 13:00N 49°39' W 001°37'0 0.0
2017-Jul-13 12:30N 49°39' W 001°37'0 0.0
2017-Jul-13 12:00N 49°39' W 001°37'0 1.0
2017-Jul-13 11:30N 49°39' W 001°37'510.8
2017-Jul-13 11:00N 49°45' W 001°36'1019.1
2017-Jul-13 10:30N 49°54' W 001°41'918.5
2017-Jul-13 10:00N 50°03' W 001°45'917.3
2017-Jul-13 09:30N 50°11' W 001°45'918.4
2017-Jul-13 09:00N 50°20' W 001°48'918.3
2017-Jul-13 08:30N 50°29' W 001°51'917.7
2017-Jul-13 08:00N 50°38' W 001°54'5 9.8
2017-Jul-13 07:31N 50°42' W 001°58'1 1.9
2017-Jul-13 07:00N 50°42' W 001°59'0 0.0
2017-Jul-13 06:30N 50°42' W 001°59'0 0.0
2017-Jul-13 06:01N 50°42' W 001°59'2 3.3
2017-Jul-13 05:31N 50°42' W 001°57'611.0
2017-Jul-13 05:00N 50°37' W 001°53'916.1
2017-Jul-13 04:28N 50°28' W 001°51'613.7
2017-Jul-13 04:01N 50°22' W 001°50'813.8
2017-Jul-13 03:27N 50°14' W 001°50'614.0
2017-Jul-13 03:00N 50°08' W 001°50'714.0
2017-Jul-13 02:30N 50°01' W 001°49'714.7
2017-Jul-13 02:01N 49°54' W 001°45'714.5
2017-Jul-13 01:31N 49°47' W 001°42'1 1.8
2017-Jul-13 01:00N 49°47' W 001°41'0 1.0
2017-Jul-13 00:30N 49°47' W 001°41'0 0.6
2017-Jul-13 00:00N 49°47' W 001°41'0 0.9
2017-Jul-12 23:30N 49°47' W 001°41'1 1.7
2017-Jul-12 23:00N 49°48' W 001°43'1 2.8
2017-Jul-12 22:30N 49°48' W 001°45'2 3.6
2017-Jul-12 22:00N 49°48' W 001°48'2 3.7
2017-Jul-12 21:30N 49°47' W 001°50'611.3
2017-Jul-12 21:00N 49°44' W 001°43'611.7
2017-Jul-12 20:30N 49°39' W 001°37'1 1.3
2017-Jul-12 20:00N 49°39' W 001°37'0 0.0
2017-Jul-12 19:30N 49°39' W 001°37'0 0.0
2017-Jul-12 19:00N 49°39' W 001°37'0 0.0
2017-Jul-12 18:30N 49°39' W 001°37'0 0.0
2017-Jul-12 18:00N 49°39' W 001°37'0 0.0
2017-Jul-12 17:30N 49°39' W 001°37'0 0.0
2017-Jul-12 17:00N 49°39' W 001°37'0 0.0
2017-Jul-12 16:30N 49°39' W 001°37'0 0.0
2017-Jul-12 16:00N 49°39' W 001°37'0 0.0
2017-Jul-12 15:30N 49°39' W 001°37'0 0.0
2017-Jul-12 15:00N 49°39' W 001°37'0 0.0
2017-Jul-12 14:00N 49°39' W 001°37'0 0.0
2017-Jul-12 13:30N 49°39' W 001°37'0 0.0
2017-Jul-12 13:00N 49°39' W 001°37'0 0.0
2017-Jul-12 12:31N 49°39' W 001°37'0 0.0
2017-Jul-12 12:00N 49°39' W 001°37'0 0.8
2017-Jul-12 11:30N 49°39' W 001°37'815.8
2017-Jul-12 11:00N 49°47' W 001°38'919.1
2017-Jul-12 10:31N 49°56' W 001°41'918.5
2017-Jul-12 10:01N 50°05' W 001°44'918.5
2017-Jul-12 09:30N 50°14' W 001°47'1518.4
2017-Jul-12 08:40N 50°30' W 001°52'318.2
2017-Jul-12 08:30N 50°33' W 001°53'815.8
2017-Jul-12 08:00N 50°40' W 001°56'3 6.2
2017-Jul-12 07:30N 50°42' W 001°59'0 0.0
2017-Jul-12 07:00N 50°42' W 001°59'0 0.0
2017-Jul-12 06:30N 50°42' W 001°59'0 0.0
2017-Jul-12 06:00N 50°42' W 001°59'2 3.8
2017-Jul-12 05:30N 50°41' W 001°57'713.1
2017-Jul-12 05:01N 50°35' W 001°53'711.9
2017-Jul-12 04:27N 50°29' W 001°51'1313.8
2017-Jul-12 03:32N 50°16' W 001°49'113.7
2017-Jul-12 03:29N 50°15' W 001°49'1014.4
2017-Jul-12 02:45N 50°05' W 001°44'414.4
2017-Jul-12 02:30N 50°02' W 001°42'714.4
2017-Jul-12 02:00N 49°55' W 001°40'714.5
2017-Jul-12 01:30N 49°48' W 001°37'3 5.3
2017-Jul-12 01:00N 49°45' W 001°36'0 0.8
2017-Jul-12 00:31N 49°45' W 001°37'1 1.5
2017-Jul-12 00:00N 49°45' W 001°38'1 2.2
2017-Jul-11 23:30N 49°45' W 001°39'1 2.5
2017-Jul-11 23:00N 49°45' W 001°41'1 2.9
2017-Jul-11 22:30N 49°45' W 001°44'1 2.8
2017-Jul-11 22:01N 49°45' W 001°46'1 2.2
2017-Jul-11 21:30N 49°45' W 001°47'3 6.2
2017-Jul-11 21:00N 49°43' W 001°43'510.7
2017-Jul-11 20:31N 49°40' W 001°37'1 1.9
2017-Jul-11 20:00N 49°39' W 001°37'0 0.0
2017-Jul-11 19:30N 49°39' W 001°37'0 0.0
2017-Jul-11 19:00N 49°39' W 001°37'0 0.0
2017-Jul-11 18:30N 49°39' W 001°37'0 0.0
2017-Jul-11 18:01N 49°39' W 001°37'0 0.0
2017-Jul-11 17:30N 49°39' W 001°37'0 0.0
2017-Jul-11 17:01N 49°39' W 001°37'0 0.0
2017-Jul-11 16:30N 49°39' W 001°37'0 0.0
2017-Jul-11 16:00N 49°39' W 001°37'0 0.0
2017-Jul-11 15:30N 49°39' W 001°37'0 0.0
2017-Jul-11 15:00N 49°39' W 001°37'0 0.0
2017-Jul-11 14:30N 49°39' W 001°37'0 0.0
2017-Jul-11 14:01N 49°39' W 001°37'0 0.0
2017-Jul-11 13:30N 49°39' W 001°37'0 0.0
2017-Jul-11 13:00N 49°39' W 001°37'0 0.0
2017-Jul-11 12:31N 49°39' W 001°37'0 0.0
2017-Jul-11 12:00N 49°39' W 001°37'0 0.6
2017-Jul-11 11:30N 49°39' W 001°37'714.6
2017-Jul-11 11:00N 49°46' W 001°36'918.3
2017-Jul-11 10:30N 49°56' W 001°38'918.3
2017-Jul-11 10:00N 50°04' W 001°42'918.5
2017-Jul-11 09:31N 50°13' W 001°47'1718.0
2017-Jul-11 08:35N 50°29' W 001°52'117.8
2017-Jul-11 08:30N 50°31' W 001°53'816.4
2017-Jul-11 08:01N 50°39' W 001°55'5 9.4
2017-Jul-11 07:30N 50°42' W 001°59'0 0.2
2017-Jul-11 07:00N 50°42' W 001°59'0 0.0
2017-Jul-11 06:30N 50°42' W 001°59'0 0.0
2017-Jul-11 06:00N 50°42' W 001°59'0 0.0
2017-Jul-11 05:30N 50°42' W 001°59'0 0.0
2017-Jul-11 05:00N 50°42' W 001°59'0 0.0
2017-Jul-11 04:30N 50°42' W 001°59'0 0.0
2017-Jul-11 04:00N 50°42' W 001°59'0 0.0
2017-Jul-11 03:30N 50°42' W 001°59'0 0.0
2017-Jul-11 03:00N 50°42' W 001°59'0 0.0
2017-Jul-11 02:30N 50°42' W 001°59'0 0.0
2017-Jul-11 02:00N 50°42' W 001°59'0 0.0
2017-Jul-11 01:30N 50°42' W 001°59'0 0.0
2017-Jul-11 01:00N 50°42' W 001°59'0 0.0
2017-Jul-11 00:30N 50°42' W 001°59'0 0.0
2017-Jul-11 00:00N 50°42' W 001°59'0 0.0
2017-Jul-10 23:30N 50°42' W 001°59'0 0.0
2017-Jul-10 23:00N 50°42' W 001°59'0 0.0
2017-Jul-10 22:30N 50°42' W 001°59'0 0.0
2017-Jul-10 22:00N 50°42' W 001°59'0 0.0
2017-Jul-10 21:30N 50°42' W 001°59'0 0.0
2017-Jul-10 21:00N 50°42' W 001°59'0 0.2
2017-Jul-10 20:31N 50°42' W 001°60'4 8.8
2017-Jul-10 20:01N 50°39' W 001°55'917.6
2017-Jul-10 19:30N 50°31' W 001°50'  

Dump ship's entire track history